Time;durP1;ratioP1;P1;durP2;ratioP2;P2;SDS_P1;SDS_P2;PMS_P1;PMS_P2;Temp;Humidity;BMP_temperature;BMP_pressure;BME280_temperature;BME280_humidity;BME280_pressure;Samples;Min_cycle;Max_cycle;Signal;HPM_P1;HPM_P2
2023/08/04 00:00:10;;;;;;;7.38;2.40;;;16.00;99.90;;;;;;5127830;27;20080;-82
2023/08/04 00:02:36;;;;;;;4.05;2.38;;;16.10;99.90;;;;;;5116529;27;20467;-82
2023/08/04 00:05:03;;;;;;;6.60;2.45;;;16.00;99.90;;;;;;5091323;27;20103;-82
2023/08/04 00:07:29;;;;;;;7.90;2.30;;;16.00;99.90;;;;;;5090228;27;20039;-82
2023/08/04 00:09:55;;;;;;;7.20;2.30;;;16.00;99.90;;;;;;5104652;27;20394;-83
2023/08/04 00:12:20;;;;;;;4.07;2.50;;;16.00;99.90;;;;;;5108415;27;20042;-82
2023/08/04 00:14:47;;;;;;;5.10;2.70;;;16.00;99.90;;;;;;5085604;27;20040;-82
2023/08/04 00:17:13;;;;;;;5.75;2.17;;;16.00;99.90;;;;;;5102534;27;20040;-82
2023/08/04 00:19:40;;;;;;;9.13;2.80;;;16.00;99.90;;;;;;5086854;27;20041;-82
2023/08/04 00:22:06;;;;;;;11.23;4.03;;;16.00;99.90;;;;;;5102404;27;20026;-83
2023/08/04 00:24:31;;;;;;;4.90;2.17;;;16.00;99.90;;;;;;5098015;27;20719;-82
2023/08/04 00:26:57;;;;;;;4.43;2.17;;;15.90;99.90;;;;;;5105597;27;20282;-83
2023/08/04 00:29:23;;;;;;;5.13;2.00;;;15.90;99.90;;;;;;5087306;27;20030;-82
2023/08/04 00:31:48;;;;;;;4.80;2.22;;;15.90;99.90;;;;;;5093036;27;20798;-83
2023/08/04 00:34:14;;;;;;;3.63;2.00;;;15.80;99.90;;;;;;5128936;27;20078;-82
2023/08/04 00:36:39;;;;;;;5.60;1.98;;;15.80;99.90;;;;;;5095246;27;20039;-82
2023/08/04 00:39:05;;;;;;;4.20;2.28;;;15.80;99.90;;;;;;5083975;27;20128;-82
2023/08/04 00:41:33;;;;;;;4.53;2.13;;;15.90;99.90;;;;;;5092287;27;20031;-82
2023/08/04 00:43:59;;;;;;;6.65;2.17;;;15.80;99.90;;;;;;5093115;27;20060;-83
2023/08/04 00:46:26;;;;;;;4.40;2.13;;;15.80;99.90;;;;;;5104526;27;20047;-83
2023/08/04 00:48:54;;;;;;;6.30;1.83;;;15.80;99.90;;;;;;5106499;27;20034;-82
2023/08/04 00:51:20;;;;;;;6.88;2.05;;;15.80;99.90;;;;;;5090376;27;20042;-83
2023/08/04 00:53:45;;;;;;;6.07;1.92;;;15.80;99.90;;;;;;5088984;27;20035;-82
2023/08/04 00:56:11;;;;;;;2.92;1.70;;;15.80;99.90;;;;;;5114687;27;20181;-82
2023/08/04 00:58:37;;;;;;;6.65;2.45;;;15.80;99.90;;;;;;5093171;27;20077;-82
2023/08/04 01:01:02;;;;;;;3.53;2.10;;;15.80;99.90;;;;;;5104684;27;20067;-83
2023/08/04 01:03:31;;;;;;;5.82;2.22;;;15.80;99.90;;;;;;5092090;27;20489;-83
2023/08/04 01:06:42;;;;;;;5.85;1.77;;;15.70;99.90;;;;;;5084820;27;20138;-83
2023/08/04 01:09:55;;;;;;;4.22;2.33;;;15.70;99.90;;;;;;5113180;27;20049;-82
2023/08/04 01:12:57;;;;;;;2.03;1.73;;;15.70;99.90;;;;;;5058764;27;20138;-82
2023/08/04 01:15:24;;;;;;;4.68;1.98;;;15.70;99.90;;;;;;5090491;27;20038;-82
2023/08/04 01:17:50;;;;;;;5.50;1.90;;;15.70;99.90;;;;;;5081715;27;20046;-81
2023/08/04 01:20:17;;;;;;;4.93;1.75;;;15.60;99.90;;;;;;5090748;27;20031;-82
2023/08/04 01:22:42;;;;;;;3.85;2.05;;;15.60;99.90;;;;;;5083742;27;20152;-82
2023/08/04 01:25:08;;;;;;;4.90;2.67;;;15.60;99.90;;;;;;5099984;27;20531;-82
2023/08/04 01:27:43;;;;;;;7.38;2.13;;;15.60;99.90;;;;;;5106740;27;20047;-82
2023/08/04 01:30:23;;;;;;;5.45;2.13;;;15.50;99.90;;;;;;5088598;27;20745;-82
2023/08/04 01:32:49;;;;;;;29.75;2.35;;;15.50;99.90;;;;;;5083422;27;20035;-82
2023/08/04 01:35:15;;;;;;;5.40;2.15;;;15.60;99.90;;;;;;5096789;27;20053;-82
2023/08/04 01:37:43;;;;;;;4.03;2.10;;;15.60;99.90;;;;;;5085800;27;20396;-82
2023/08/04 01:40:12;;;;;;;7.45;2.20;;;15.50;99.90;;;;;;5098034;27;20039;-82
2023/08/04 01:42:39;;;;;;;4.20;1.88;;;15.50;99.90;;;;;;5090648;27;20030;-82
2023/08/04 01:45:05;;;;;;;3.40;2.25;;;15.50;99.90;;;;;;5112466;27;20122;-83
2023/08/04 01:47:31;;;;;;;6.57;1.90;;;15.50;99.90;;;;;;5094754;27;20045;-82
2023/08/04 01:49:56;;;;;;;6.78;1.90;;;15.50;99.90;;;;;;5093773;27;20141;-82
2023/08/04 01:52:25;;;;;;;6.20;2.00;;;15.50;99.90;;;;;;5110591;27;20038;-82
2023/08/04 01:54:51;;;;;;;4.65;1.75;;;15.50;99.90;;;;;;5093184;27;20118;-82
2023/08/04 01:57:17;;;;;;;5.57;1.70;;;15.50;99.90;;;;;;5098221;27;20114;-82
2023/08/04 01:59:44;;;;;;;3.65;1.80;;;15.50;99.90;;;;;;5109549;27;20040;-82
2023/08/04 02:02:09;;;;;;;2.63;1.40;;;15.50;99.90;;;;;;5107489;27;20038;-82
2023/08/04 02:04:35;;;;;;;2.45;1.50;;;15.50;99.90;;;;;;5122895;27;20281;-82
2023/08/04 02:07:01;;;;;;;3.08;1.50;;;15.50;99.90;;;;;;5108134;27;20038;-82
2023/08/04 02:09:30;;;;;;;4.65;1.65;;;15.50;99.90;;;;;;5106018;27;20487;-82
2023/08/04 02:11:55;;;;;;;4.80;1.30;;;15.50;99.90;;;;;;5121973;27;20104;-82
2023/08/04 02:14:25;;;;;;;4.72;1.60;;;15.50;99.90;;;;;;5088709;27;20300;-82
2023/08/04 02:16:51;;;;;;;3.72;1.63;;;15.50;99.90;;;;;;5125710;27;20023;-82
2023/08/04 02:19:16;;;;;;;4.85;1.80;;;15.50;99.90;;;;;;5100538;27;20513;-82
2023/08/04 02:21:45;;;;;;;4.47;1.63;;;15.40;99.90;;;;;;5090816;27;20050;-82
2023/08/04 02:24:10;;;;;;;5.78;1.85;;;15.50;99.90;;;;;;5112436;27;20088;-83
2023/08/04 02:26:39;;;;;;;3.92;1.63;;;15.40;99.90;;;;;;5105911;27;20039;-82
2023/08/04 02:29:11;;;;;;;3.33;1.42;;;15.40;99.90;;;;;;5103044;27;20493;-82
2023/08/04 02:31:37;;;;;;;5.32;1.85;;;15.40;99.90;;;;;;5106209;27;20035;-82
2023/08/04 02:34:03;;;;;;;3.85;1.40;;;15.40;99.90;;;;;;5092086;27;20035;-82
2023/08/04 02:36:29;;;;;;;8.50;1.90;;;15.40;99.90;;;;;;5122318;27;20043;-82
2023/08/04 02:38:54;;;;;;;4.35;1.70;;;15.40;99.90;;;;;;5088248;27;20036;-82
2023/08/04 02:41:20;;;;;;;4.57;1.52;;;15.30;99.90;;;;;;5104799;27;20566;-82
2023/08/04 02:43:46;;;;;;;4.00;1.60;;;15.30;99.90;;;;;;5122195;27;20047;-83
2023/08/04 02:46:12;;;;;;;5.43;1.70;;;15.30;99.90;;;;;;5117739;27;20478;-82
2023/08/04 02:48:41;;;;;;;5.38;1.70;;;15.30;99.90;;;;;;5109268;27;20592;-82
2023/08/04 02:51:14;;;;;;;4.82;2.28;;;15.30;99.90;;;;;;5114354;27;20057;-82
2023/08/04 02:53:43;;;;;;;4.78;1.73;;;15.30;99.90;;;;;;5079185;27;20115;-82
2023/08/04 02:56:14;;;;;;;5.80;1.92;;;15.30;99.90;;;;;;5108613;27;20267;-82
2023/08/04 02:58:47;;;;;;;3.33;1.85;;;15.30;99.90;;;;;;5107648;27;20162;-83
2023/08/04 03:01:13;;;;;;;6.07;1.80;;;15.30;99.90;;;;;;5082000;27;20035;-83
2023/08/04 03:03:39;;;;;;;2.97;1.30;;;15.40;99.90;;;;;;5095906;27;20027;-82
2023/08/04 03:06:06;;;;;;;2.65;1.55;;;15.40;99.90;;;;;;5107993;27;20043;-82
2023/08/04 03:08:32;;;;;;;2.72;1.58;;;15.40;99.90;;;;;;5091576;27;20054;-82
2023/08/04 03:10:58;;;;;;;2.42;1.50;;;15.30;99.90;;;;;;5108187;27;20040;-82
2023/08/04 03:13:23;;;;;;;5.68;1.60;;;15.30;99.90;;;;;;5094247;27;20381;-82
2023/08/04 03:15:58;;;;;;;3.25;1.60;;;15.30;99.90;;;;;;5104339;27;20039;-83
2023/08/04 03:18:24;;;;;;;2.67;1.58;;;15.30;99.90;;;;;;5102784;27;20386;-82
2023/08/04 03:20:49;;;;;;;3.83;1.70;;;15.30;99.90;;;;;;5111794;27;20038;-82
2023/08/04 03:23:15;;;;;;;2.55;1.60;;;15.20;99.90;;;;;;5081945;27;20419;-82
2023/08/04 03:25:41;;;;;;;6.88;1.67;;;15.20;99.90;;;;;;5090470;27;20111;-82
2023/08/04 03:28:07;;;;;;;5.75;1.60;;;15.20;99.90;;;;;;5100459;27;20043;-82
2023/08/04 03:30:33;;;;;;;2.47;1.70;;;15.20;99.90;;;;;;5109531;27;20053;-82
2023/08/04 03:32:59;;;;;;;2.58;1.60;;;15.20;99.90;;;;;;5129314;27;20714;-82
2023/08/04 03:35:24;;;;;;;3.95;1.50;;;15.10;99.90;;;;;;5092833;27;20051;-82
2023/08/04 03:37:50;;;;;;;4.68;1.80;;;15.10;99.90;;;;;;5105580;27;20436;-82
2023/08/04 03:40:16;;;;;;;3.83;1.42;;;15.10;99.90;;;;;;5098386;27;20039;-82
2023/08/04 03:42:43;;;;;;;5.15;1.77;;;15.10;99.90;;;;;;5094460;27;20035;-82
2023/08/04 03:45:09;;;;;;;2.35;1.40;;;15.00;99.90;;;;;;5089657;27;20054;-82
2023/08/04 03:47:34;;;;;;;3.65;1.70;;;15.10;99.90;;;;;;5092397;27;20046;-82
2023/08/04 03:50:02;;;;;;;3.85;1.50;;;15.00;99.90;;;;;;5098180;27;20036;-82
2023/08/04 03:52:27;;;;;;;4.85;1.60;;;15.00;99.90;;;;;;5101640;27;20082;-82
2023/08/04 03:54:53;;;;;;;3.20;1.85;;;15.00;99.90;;;;;;5104693;27;20075;-82
2023/08/04 03:57:18;;;;;;;5.97;1.92;;;15.00;99.90;;;;;;5116710;27;20022;-82
2023/08/04 03:59:44;;;;;;;3.92;1.92;;;15.00;99.90;;;;;;5105759;27;20039;-82
2023/08/04 04:02:10;;;;;;;3.40;1.70;;;15.00;99.90;;;;;;5098859;27;20048;-82
2023/08/04 04:04:36;;;;;;;3.85;1.60;;;15.00;99.90;;;;;;5124095;27;20061;-82
2023/08/04 04:07:02;;;;;;;3.15;1.40;;;14.90;99.90;;;;;;5108008;27;20035;-82
2023/08/04 04:09:28;;;;;;;4.82;1.58;;;14.90;99.90;;;;;;5093119;27;20042;-83
2023/08/04 04:11:53;;;;;;;5.43;2.45;;;15.00;99.90;;;;;;5097657;27;20031;-82
2023/08/04 04:14:19;;;;;;;3.92;1.70;;;15.00;99.90;;;;;;5114722;27;21047;-82
2023/08/04 04:16:44;;;;;;;4.57;1.80;;;15.00;99.90;;;;;;5110753;27;20033;-82
2023/08/04 04:19:10;;;;;;;4.47;1.90;;;15.00;99.90;;;;;;5095109;27;20323;-82
2023/08/04 04:21:37;;;;;;;2.38;1.60;;;15.00;99.90;;;;;;5106036;27;20432;-82
2023/08/04 04:24:03;;;;;;;4.13;1.90;;;15.10;99.90;;;;;;5097562;27;20046;-82
2023/08/04 04:26:28;;;;;;;2.20;1.80;;;15.20;99.90;;;;;;5083836;27;20479;-82
2023/08/04 04:28:57;;;;;;;5.93;2.17;;;15.20;99.90;;;;;;5102394;27;20413;-82
2023/08/04 04:31:22;;;;;;;3.10;1.70;;;15.20;99.90;;;;;;5107643;27;20043;-82
2023/08/04 04:33:48;;;;;;;6.25;1.80;;;15.20;99.90;;;;;;5104111;27;20031;-82
2023/08/04 04:36:14;;;;;;;5.28;1.70;;;15.30;99.90;;;;;;5100652;27;20568;-82
2023/08/04 04:38:39;;;;;;;4.93;1.73;;;15.30;99.90;;;;;;5086936;27;20119;-82
2023/08/04 04:41:05;;;;;;;3.03;1.80;;;15.30;99.90;;;;;;5134096;27;20106;-82
2023/08/04 04:43:31;;;;;;;5.43;2.00;;;15.30;99.90;;;;;;5088046;27;20053;-81
2023/08/04 04:45:56;;;;;;;5.10;1.77;;;15.30;99.90;;;;;;5080540;27;20039;-82
2023/08/04 04:48:23;;;;;;;4.45;1.67;;;15.30;99.90;;;;;;5092469;27;20088;-83
2023/08/04 04:50:53;;;;;;;2.63;1.60;;;15.20;99.90;;;;;;5110118;27;20185;-82
2023/08/04 04:53:19;;;;;;;2.25;1.40;;;15.30;99.90;;;;;;5085069;27;20133;-82
2023/08/04 04:55:44;;;;;;;3.83;1.77;;;15.20;99.90;;;;;;5112428;27;20130;-82
2023/08/04 04:58:12;;;;;;;2.85;1.38;;;15.30;99.90;;;;;;5093481;27;20118;-82
2023/08/04 05:00:38;;;;;;;2.95;1.70;;;15.20;99.90;;;;;;5112550;27;20096;-82
2023/08/04 05:03:08;;;;;;;3.40;1.38;;;15.30;99.90;;;;;;5099022;27;20722;-82
2023/08/04 05:05:35;;;;;;;2.35;1.15;;;15.30;99.90;;;;;;5114070;27;20074;-82
2023/08/04 05:08:01;;;;;;;3.92;1.80;;;15.40;99.90;;;;;;5085060;27;20036;-82
2023/08/04 05:10:27;;;;;;;3.08;1.67;;;15.40;99.90;;;;;;5098419;27;20123;-81
2023/08/04 05:12:53;;;;;;;2.45;1.83;;;15.40;99.90;;;;;;5114446;27;20093;-82
2023/08/04 05:15:18;;;;;;;2.60;1.38;;;15.40;99.90;;;;;;5097951;27;20450;-82
2023/08/04 05:17:47;;;;;;;2.60;1.80;;;15.50;99.90;;;;;;5120119;27;20047;-82
2023/08/04 05:20:13;;;;;;;4.38;1.90;;;15.50;99.90;;;;;;5123157;27;20027;-82
2023/08/04 05:22:43;;;;;;;4.38;1.98;;;15.60;99.90;;;;;;5093915;27;20026;-82
2023/08/04 05:25:09;;;;;;;2.17;1.50;;;15.70;99.90;;;;;;5112315;27;20034;-82
2023/08/04 05:27:35;;;;;;;2.08;1.30;;;15.80;99.90;;;;;;5109181;27;20126;-82
2023/08/04 05:30:01;;;;;;;1.98;1.42;;;15.80;99.90;;;;;;5107601;27;20126;-82
2023/08/04 05:32:27;;;;;;;2.70;1.67;;;15.80;99.90;;;;;;5117105;27;20118;-82
2023/08/04 05:34:53;;;;;;;2.28;1.60;;;15.80;99.90;;;;;;5109506;27;20393;-82
2023/08/04 05:37:19;;;;;;;3.13;1.83;;;15.80;99.90;;;;;;5084890;27;20035;-82
2023/08/04 05:39:44;;;;;;;3.50;1.73;;;15.90;99.90;;;;;;5102702;27;20039;-82
2023/08/04 05:42:10;;;;;;;3.35;2.05;;;15.90;99.90;;;;;;5123127;27;20027;-82
2023/08/04 05:44:36;;;;;;;5.82;2.00;;;16.00;99.90;;;;;;5094143;27;20059;-82
2023/08/04 05:47:02;;;;;;;3.97;2.03;;;16.10;99.90;;;;;;5105275;27;20039;-82
2023/08/04 05:49:27;;;;;;;4.30;1.75;;;16.10;99.90;;;;;;5091869;27;20538;-82
2023/08/04 05:51:53;;;;;;;3.47;1.90;;;16.10;99.90;;;;;;5094164;27;20521;-82
2023/08/04 05:54:19;;;;;;;5.38;2.00;;;16.20;99.90;;;;;;5098430;27;20427;-82
2023/08/04 05:56:44;;;;;;;5.50;2.10;;;16.20;99.90;;;;;;5101359;27;20402;-81
2023/08/04 05:59:10;;;;;;;2.40;1.70;;;16.20;99.90;;;;;;5114630;27;20036;-82
2023/08/04 06:01:36;;;;;;;3.60;1.88;;;16.40;99.90;;;;;;5089971;27;20031;-82
2023/08/04 06:04:02;;;;;;;3.67;2.33;;;16.30;99.90;;;;;;5088873;27;20024;-82
2023/08/04 06:06:27;;;;;;;3.92;1.83;;;16.30;99.90;;;;;;5106456;27;20508;-82
2023/08/04 06:08:54;;;;;;;3.35;1.85;;;16.40;99.90;;;;;;5120238;27;20112;-83
2023/08/04 06:11:21;;;;;;;6.15;2.20;;;16.50;99.90;;;;;;5129047;27;20038;-82
2023/08/04 06:13:47;;;;;;;4.22;1.90;;;16.50;99.90;;;;;;5116103;27;20043;-82
2023/08/04 06:16:15;;;;;;;3.60;1.90;;;16.50;99.90;;;;;;5096453;27;20039;-82
2023/08/04 06:18:41;;;;;;;3.20;1.85;;;16.60;99.90;;;;;;5086754;27;20343;-82
2023/08/04 06:21:07;;;;;;;2.85;1.83;;;16.60;99.90;;;;;;5094046;27;20429;-82
2023/08/04 06:23:33;;;;;;;4.53;2.17;;;16.70;99.90;;;;;;5086564;27;20077;-82
2023/08/04 06:25:58;;;;;;;3.30;1.67;;;16.70;99.90;;;;;;5111884;27;20095;-82
2023/08/04 06:28:24;;;;;;;5.28;1.70;;;16.70;99.90;;;;;;5101881;27;20395;-82
2023/08/04 06:30:50;;;;;;;2.38;1.60;;;16.70;99.90;;;;;;5099765;27;20504;-82
2023/08/04 06:33:16;;;;;;;4.13;1.88;;;16.90;99.90;;;;;;5087318;27;20034;-82
2023/08/04 06:35:45;;;;;;;4.07;2.03;;;16.90;99.90;;;;;;5108422;27;20034;-82
2023/08/04 06:38:11;;;;;;;4.57;1.90;;;16.90;99.90;;;;;;5082094;27;20031;-82
2023/08/04 06:40:38;;;;;;;3.65;1.90;;;17.00;99.90;;;;;;5084339;27;20106;-83
2023/08/04 06:43:03;;;;;;;3.63;1.80;;;17.00;99.90;;;;;;5094320;27;20034;-82
2023/08/04 06:45:29;;;;;;;7.35;2.17;;;17.20;99.90;;;;;;5086686;27;20065;-83
2023/08/04 06:47:55;;;;;;;3.72;1.83;;;17.20;99.90;;;;;;5091820;27;20047;-83
2023/08/04 06:50:20;;;;;;;2.97;1.88;;;17.20;99.90;;;;;;5108096;27;20043;-82
2023/08/04 06:52:49;;;;;;;2.83;1.80;;;17.20;99.90;;;;;;5116688;27;20092;-83
2023/08/04 06:55:14;;;;;;;5.30;2.20;;;17.30;99.90;;;;;;5099714;27;20095;-82
2023/08/04 06:57:40;;;;;;;3.72;1.90;;;17.40;99.90;;;;;;5092740;27;20038;-83
2023/08/04 07:00:08;;;;;;;2.30;1.58;;;17.60;99.90;;;;;;5091554;27;20042;-83
2023/08/04 07:02:34;;;;;;;3.58;2.00;;;17.70;99.90;;;;;;5122080;27;20247;-83
2023/08/04 07:05:00;;;;;;;3.75;1.75;;;17.80;99.90;;;;;;5110106;27;20058;-83
2023/08/04 07:07:29;;;;;;;4.97;2.10;;;17.80;99.90;;;;;;5090675;27;20479;-83
2023/08/04 07:09:55;;;;;;;5.07;1.95;;;17.60;99.90;;;;;;5118145;27;20043;-83
2023/08/04 07:12:21;;;;;;;4.95;2.08;;;17.60;99.90;;;;;;5097942;27;20045;-83
2023/08/04 07:14:46;;;;;;;4.72;2.15;;;17.80;99.90;;;;;;5090844;27;20413;-83
2023/08/04 07:17:12;;;;;;;3.53;2.10;;;17.80;99.90;;;;;;5098574;27;20466;-83
2023/08/04 07:19:38;;;;;;;4.63;2.15;;;17.80;99.90;;;;;;5119219;27;20435;-83
2023/08/04 07:22:04;;;;;;;7.45;2.15;;;18.00;99.90;;;;;;5105291;27;20095;-83
2023/08/04 07:24:30;;;;;;;3.58;2.50;;;18.10;99.90;;;;;;5095311;27;20049;-83
2023/08/04 07:26:56;;;;;;;4.20;2.22;;;18.20;99.90;;;;;;5105429;27;20080;-83
2023/08/04 07:29:21;;;;;;;3.30;1.90;;;18.20;99.90;;;;;;5086614;27;20039;-82
2023/08/04 07:31:47;;;;;;;5.43;2.20;;;18.00;99.90;;;;;;5085357;27;20042;-82
2023/08/04 07:34:13;;;;;;;4.70;2.00;;;18.00;99.90;;;;;;5122798;27;20442;-82
2023/08/04 07:36:38;;;;;;;3.72;1.85;;;17.90;99.90;;;;;;5093012;27;20033;-82
2023/08/04 07:39:04;;;;;;;4.70;2.28;;;18.10;99.90;;;;;;5080977;27;20032;-82
2023/08/04 07:41:30;;;;;;;5.47;2.10;;;18.20;99.90;;;;;;5107602;27;20081;-82
2023/08/04 07:43:56;;;;;;;3.05;1.73;;;18.40;99.90;;;;;;5083080;27;20047;-83
2023/08/04 07:46:26;;;;;;;6.28;1.70;;;18.40;99.90;;;;;;5111353;27;20440;-82
2023/08/04 07:48:53;;;;;;;4.45;1.80;;;18.30;99.90;;;;;;5106668;27;20126;-82
2023/08/04 07:51:19;;;;;;;7.90;2.30;;;18.30;99.90;;;;;;5099861;27;20042;-83
2023/08/04 07:53:45;;;;;;;4.55;1.75;;;18.40;99.90;;;;;;5103806;27;20037;-82
2023/08/04 07:56:10;;;;;;;4.10;2.13;;;18.50;99.90;;;;;;5094978;27;20396;-83
2023/08/04 07:58:36;;;;;;;7.22;1.90;;;18.60;99.90;;;;;;5109661;27;20042;-83
2023/08/04 08:01:05;;;;;;;2.47;1.65;;;18.50;99.90;;;;;;5090556;27;20035;-83
2023/08/04 08:03:35;;;;;;;2.40;1.52;;;18.50;99.90;;;;;;5125182;27;20366;-82
2023/08/04 08:06:01;;;;;;;2.97;1.70;;;18.50;99.90;;;;;;5108235;27;20039;-82
2023/08/04 08:08:31;;;;;;;3.60;1.50;;;18.60;99.90;;;;;;5104005;27;20041;-83
2023/08/04 08:10:56;;;;;;;7.82;2.45;;;18.40;99.90;;;;;;5101859;27;20049;-83
2023/08/04 08:13:22;;;;;;;3.65;1.80;;;18.80;99.90;;;;;;5092062;27;20031;-82
2023/08/04 08:15:48;;;;;;;4.15;1.70;;;19.00;99.90;;;;;;5104271;27;20488;-83
2023/08/04 08:18:17;;;;;;;4.53;1.75;;;19.20;99.90;;;;;;5101036;27;20086;-83
2023/08/04 08:20:45;;;;;;;3.97;1.80;;;19.30;99.90;;;;;;5105486;27;20514;-83
2023/08/04 08:23:11;;;;;;;4.88;1.70;;;19.10;99.90;;;;;;5084990;27;20050;-82
2023/08/04 08:25:37;;;;;;;4.68;1.80;;;19.00;99.90;;;;;;5088069;27;20400;-83
2023/08/04 08:28:03;;;;;;;5.18;1.88;;;18.90;99.90;;;;;;5111070;27;20071;-82
2023/08/04 08:30:30;;;;;;;5.22;1.88;;;18.80;99.90;;;;;;5129787;27;20126;-83
2023/08/04 08:32:56;;;;;;;5.32;1.92;;;18.50;99.90;;;;;;5097847;27;20039;-82
2023/08/04 08:35:22;;;;;;;5.10;1.80;;;18.60;99.90;;;;;;5083159;27;20039;-83
2023/08/04 08:37:48;;;;;;;5.70;1.80;;;18.40;99.90;;;;;;5105914;27;20482;-82
2023/08/04 08:40:14;;;;;;;4.45;1.80;;;18.60;99.90;;;;;;5087276;27;20039;-82
2023/08/04 08:42:39;;;;;;;5.13;1.73;;;18.50;99.90;;;;;;5094080;27;20069;-83
2023/08/04 08:45:06;;;;;;;4.32;1.52;;;18.40;99.90;;;;;;5132354;27;20104;-83
2023/08/04 08:47:36;;;;;;;4.47;1.55;;;18.60;99.90;;;;;;5110644;27;20042;-83
2023/08/04 08:50:04;;;;;;;4.28;1.40;;;18.80;99.90;;;;;;5103483;27;20146;-82
2023/08/04 08:52:32;;;;;;;3.92;1.30;;;19.00;99.90;;;;;;5108159;27;20043;-83
2023/08/04 08:54:59;;;;;;;1.85;1.30;;;18.90;99.90;;;;;;5127349;27;20058;-83
2023/08/04 08:57:27;;;;;;;4.05;1.38;;;19.10;99.90;;;;;;5104638;27;20038;-83
2023/08/04 08:59:54;;;;;;;7.60;1.42;;;19.60;99.90;;;;;;5090220;27;20027;-83
2023/08/04 09:02:21;;;;;;;5.32;1.70;;;19.80;99.90;;;;;;5106573;27;20038;-83
2023/08/04 09:04:47;;;;;;;4.20;1.75;;;19.70;99.90;;;;;;5109482;27;20041;-83
2023/08/04 09:07:12;;;;;;;5.25;1.20;;;19.60;99.90;;;;;;5082790;27;20031;-82
2023/08/04 09:09:38;;;;;;;4.57;1.35;;;18.60;99.90;;;;;;5084459;27;20039;-83
2023/08/04 09:12:06;;;;;;;3.60;1.25;;;17.80;99.90;;;;;;5111888;27;20058;-83
2023/08/04 09:14:50;;;;;;;4.28;1.30;;;17.60;99.90;;;;;;5083049;27;20091;-82
2023/08/04 09:17:35;;;;;;;3.15;1.33;;;17.70;99.90;;;;;;5097260;27;20032;-83
2023/08/04 09:20:06;;;;;;;4.75;1.75;;;17.80;99.90;;;;;;5091566;27;20035;-83
2023/08/04 09:22:37;;;;;;;8.20;2.00;;;18.10;99.90;;;;;;5083294;27;20454;-84
2023/08/04 09:25:04;;;;;;;6.13;1.70;;;18.50;99.90;;;;;;5107585;27;20383;-84
2023/08/04 09:27:35;;;;;;;3.85;1.35;;;18.50;99.90;;;;;;5102395;27;20344;-83
2023/08/04 09:30:06;;;;;;;4.13;1.83;;;18.90;99.90;;;;;;5098353;27;20048;-83
2023/08/04 09:32:43;;;;;;;4.60;1.60;;;19.20;99.90;;;;;;5082558;27;20344;-84
2023/08/04 09:35:09;;;;;;;4.55;1.60;;;19.60;99.90;;;;;;5108245;27;20034;-83
2023/08/04 09:37:39;;;;;;;3.65;1.30;;;19.30;99.90;;;;;;5122799;27;20039;-83
2023/08/04 09:40:13;;;;;;;6.85;1.80;;;19.40;99.90;;;;;;5109995;27;20038;-84
2023/08/04 09:42:40;;;;;;;2.95;1.60;;;19.20;99.90;;;;;;5086365;27;20043;-84
2023/08/04 09:45:08;;;;;;;6.38;1.60;;;19.50;99.90;;;;;;5126717;27;20047;-84
2023/08/04 09:47:34;;;;;;;7.28;2.08;;;19.50;99.90;;;;;;5081113;27;20470;-84
2023/08/04 09:49:59;;;;;;;3.97;1.60;;;19.20;99.90;;;;;;5111531;27;20035;-84
2023/08/04 09:52:30;;;;;;;4.00;1.65;;;19.50;99.90;;;;;;5098619;27;20035;-83
2023/08/04 09:54:57;;;;;;;6.22;2.25;;;19.70;99.90;;;;;;5123189;27;20520;-83
2023/08/04 09:57:23;;;;;;;6.85;2.03;;;19.70;99.90;;;;;;5111447;27;20117;-84
2023/08/04 09:59:50;;;;;;;4.28;1.80;;;19.40;99.90;;;;;;5097030;27;20392;-83
2023/08/04 10:02:18;;;;;;;3.42;1.60;;;19.30;99.90;;;;;;5105311;27;20396;-83
2023/08/04 10:04:48;;;;;;;5.88;1.90;;;19.20;99.90;;;;;;5113887;27;20039;-83
2023/08/04 10:07:14;;;;;;;4.03;1.52;;;19.10;99.90;;;;;;5100343;27;20047;-83
2023/08/04 10:09:41;;;;;;;2.97;1.83;;;19.30;99.90;;;;;;5110287;27;20497;-83
2023/08/04 10:12:07;;;;;;;5.35;1.50;;;19.20;99.90;;;;;;5099046;27;20117;-83
2023/08/04 10:14:33;;;;;;;3.85;1.52;;;19.30;99.90;;;;;;5090893;27;20166;-83
2023/08/04 10:17:00;;;;;;;3.60;1.67;;;19.30;99.90;;;;;;5117101;27;20142;-83
2023/08/04 10:19:28;;;;;;;7.97;1.80;;;19.10;99.90;;;;;;5094258;27;20466;-84
2023/08/04 10:21:53;;;;;;;5.78;1.67;;;19.10;99.90;;;;;;5126876;27;20478;-83
2023/08/04 10:24:25;;;;;;;5.32;2.13;;;18.90;99.90;;;;;;5118559;27;20037;-85
2023/08/04 10:26:52;;;;;;;4.38;1.77;;;18.80;99.90;;;;;;5110056;27;20031;-84
2023/08/04 10:29:19;;;;;;;6.75;2.55;;;18.80;99.90;;;;;;5089500;27;20035;-83
2023/08/04 10:31:56;;;;;;;4.50;1.67;;;19.60;99.90;;;;;;5112479;27;20046;-83
2023/08/04 10:34:47;;;;;;;4.25;1.40;;;19.90;99.90;;;;;;5083068;27;20043;-83
2023/08/04 10:37:15;;;;;;;4.15;1.85;;;20.50;99.90;;;;;;5128537;27;20047;-83
2023/08/04 10:39:56;;;;;;;3.33;1.63;;;20.40;99.90;;;;;;5117388;27;20496;-83
2023/08/04 10:42:23;;;;;;;4.70;1.80;;;20.40;99.90;;;;;;5102761;27;20032;-83
2023/08/04 10:45:04;;;;;;;1.88;1.15;;;19.80;99.90;;;;;;5102996;27;20099;-84
2023/08/04 10:47:44;;;;;;;3.47;1.10;;;19.40;99.90;;;;;;5087404;27;20481;-83
2023/08/04 10:50:10;;;;;;;1.45;1.00;;;19.20;99.90;;;;;;5106356;27;20046;-83
2023/08/04 10:52:37;;;;;;;1.63;0.88;;;19.60;99.90;;;;;;5118517;27;20034;-83
2023/08/04 10:55:06;;;;;;;2.63;1.05;;;20.10;99.90;;;;;;5090265;27;20042;-83
2023/08/04 10:57:33;;;;;;;2.83;1.00;;;19.70;99.90;;;;;;5113621;27;20035;-83
2023/08/04 11:00:00;;;;;;;1.45;0.88;;;19.50;99.90;;;;;;5094209;27;20038;-83
2023/08/04 11:02:26;;;;;;;4.32;1.00;;;20.00;99.90;;;;;;5127911;27;20517;-84
2023/08/04 11:04:54;;;;;;;3.03;1.30;;;20.60;99.90;;;;;;5116566;27;20398;-83
2023/08/04 11:07:22;;;;;;;3.15;1.20;;;20.40;99.90;;;;;;5095210;27;20054;-84
2023/08/04 11:09:48;;;;;;;2.72;1.10;;;20.00;99.90;;;;;;5091417;27;20039;-83
2023/08/04 11:12:15;;;;;;;3.30;1.42;;;19.70;99.90;;;;;;5118298;27;20049;-83
2023/08/04 11:14:42;;;;;;;2.40;1.13;;;19.60;99.90;;;;;;5104289;27;20039;-83
2023/08/04 11:17:19;;;;;;;2.45;1.20;;;19.80;99.90;;;;;;5115481;27;20027;-82
2023/08/04 11:19:49;;;;;;;2.10;0.80;;;20.00;99.90;;;;;;5105800;27;20148;-83
2023/08/04 11:22:23;;;;;;;2.42;1.17;;;20.90;99.90;;;;;;5088395;27;20044;-83
2023/08/04 11:24:53;;;;;;;2.63;1.48;;;20.80;99.90;;;;;;5100564;27;20035;-83
2023/08/04 11:27:19;;;;;;;2.38;1.10;;;20.50;99.90;;;;;;5109732;27;20040;-83
2023/08/04 11:29:51;;;;;;;2.17;1.20;;;20.80;99.90;;;;;;5096489;27;20035;-83
2023/08/04 11:32:20;;;;;;;2.15;1.08;;;20.50;99.90;;;;;;5102122;27;20117;-83
2023/08/04 11:34:48;;;;;;;2.40;1.20;;;20.40;99.90;;;;;;5102126;27;20322;-83
2023/08/04 11:37:15;;;;;;;2.40;1.00;;;20.50;99.90;;;;;;5091057;27;20038;-83
2023/08/04 11:39:42;;;;;;;2.95;1.10;;;20.10;99.90;;;;;;5090368;27;20031;-83
2023/08/04 11:42:12;;;;;;;3.70;1.30;;;20.00;99.90;;;;;;5087967;27;20097;-83
2023/08/04 11:44:45;;;;;;;3.08;1.20;;;19.60;99.90;;;;;;5097880;27;20043;-83
2023/08/04 11:47:12;;;;;;;3.58;1.20;;;19.70;99.90;;;;;;5086256;27;20080;-83
2023/08/04 11:49:40;;;;;;;4.30;1.75;;;19.40;99.90;;;;;;5095651;27;20039;-84
2023/08/04 11:52:09;;;;;;;3.53;1.17;;;19.50;99.90;;;;;;5104555;27;20035;-83
2023/08/04 11:54:35;;;;;;;2.08;1.00;;;19.50;99.90;;;;;;5091706;27;20615;-83
2023/08/04 11:57:01;;;;;;;1.35;0.88;;;19.70;99.90;;;;;;5100859;27;20042;-83
2023/08/04 11:59:27;;;;;;;2.08;0.93;;;19.90;99.90;;;;;;5095740;27;20488;-84
2023/08/04 12:02:06;;;;;;;1.52;0.70;;;20.60;99.90;;;;;;5087485;27;20035;-83
2023/08/04 12:04:32;;;;;;;3.67;0.90;;;21.00;99.90;;;;;;5099185;27;20711;-83
2023/08/04 12:07:02;;;;;;;3.42;1.13;;;20.80;99.90;;;;;;5098959;27;20057;-83
2023/08/04 12:09:31;;;;;;;3.28;1.23;;;20.60;99.90;;;;;;5085774;27;20058;-83
2023/08/04 12:11:57;;;;;;;0.93;0.70;;;20.60;99.90;;;;;;5115796;27;20546;-83
2023/08/04 12:14:23;;;;;;;1.17;0.60;;;20.70;99.90;;;;;;5089369;27;20040;-83
2023/08/04 12:16:50;;;;;;;1.45;1.10;;;20.50;99.90;;;;;;5087196;27;20126;-83
2023/08/04 12:19:16;;;;;;;1.15;0.80;;;20.60;99.90;;;;;;5089917;27;20434;-83
2023/08/04 12:21:41;;;;;;;3.65;0.93;;;20.60;99.90;;;;;;5102047;27;20038;-83
2023/08/04 12:24:07;;;;;;;2.85;1.15;;;20.70;99.90;;;;;;5082820;27;20561;-83
2023/08/04 12:26:32;;;;;;;1.35;0.77;;;21.40;99.90;;;;;;5102331;27;20043;-82
2023/08/04 12:28:58;;;;;;;2.00;1.30;;;21.40;99.90;;;;;;5101293;27;20035;-82
2023/08/04 12:31:26;;;;;;;3.20;1.23;;;20.90;99.90;;;;;;5099295;27;20057;-83
2023/08/04 12:33:52;;;;;;;3.10;1.42;;;20.60;99.90;;;;;;5084407;27;20039;-82
2023/08/04 12:36:17;;;;;;;2.38;1.25;;;20.30;99.90;;;;;;5084007;27;20453;-83
2023/08/04 12:38:43;;;;;;;2.90;1.35;;;20.90;99.90;;;;;;5103734;27;20039;-82
2023/08/04 12:41:09;;;;;;;3.95;1.27;;;20.60;99.90;;;;;;5110734;27;20068;-83
2023/08/04 12:43:35;;;;;;;2.78;1.35;;;20.60;99.90;;;;;;5109287;27;20043;-83
2023/08/04 12:46:00;;;;;;;2.80;1.40;;;20.80;99.90;;;;;;5096100;27;20050;-82
2023/08/04 12:48:28;;;;;;;3.10;1.20;;;20.70;99.90;;;;;;5087220;27;20127;-83